createdAt,value
2018-06-14T00:00:46.625Z,10.67
2018-06-14T00:03:15.678Z,11.53
2018-06-14T00:05:44.429Z,15.27
2018-06-14T00:08:13.063Z,16.70
2018-06-14T00:10:42.026Z,13.63
2018-06-14T00:13:10.743Z,15.53
2018-06-14T00:15:39.372Z,21.83
2018-06-14T00:18:08.351Z,16.33
2018-06-14T00:20:37.387Z,17.90
2018-06-14T00:23:06.122Z,17.50
2018-06-14T00:25:35.088Z,19.83
2018-06-14T00:28:03.802Z,20.83
2018-06-14T00:30:32.458Z,19.80
2018-06-14T00:33:01.408Z,25.53
2018-06-14T00:35:30.503Z,23.67
2018-06-14T00:38:05.765Z,23.47
2018-06-14T00:40:34.558Z,24.40
2018-06-14T00:43:03.557Z,24.87
2018-06-14T00:45:32.711Z,22.47
2018-06-14T00:48:01.438Z,24.63
2018-06-14T00:50:30.396Z,29.37
2018-06-14T00:52:59.451Z,32.43
2018-06-14T00:55:28.836Z,23.70
2018-06-14T00:57:57.560Z,26.50
2018-06-14T01:00:26.183Z,30.20
2018-06-14T01:02:54.840Z,28.63
2018-06-14T01:05:23.483Z,27.03
2018-06-14T01:07:52.109Z,31.20
2018-06-14T01:10:21.081Z,28.70
2018-06-14T01:12:50.148Z,34.77
2018-06-14T01:15:18.877Z,27.27
2018-06-14T01:17:47.859Z,35.67
2018-06-14T01:20:16.907Z,30.77
2018-06-14T01:22:45.951Z,34.50
2018-06-14T01:25:15.018Z,30.37
2018-06-14T01:27:44.038Z,29.50
2018-06-14T01:30:13.316Z,29.13
2018-06-14T01:32:42.367Z,32.70
2018-06-14T01:35:11.444Z,28.27
2018-06-14T01:37:45.887Z,27.23
2018-06-14T01:40:14.851Z,26.53
2018-06-14T01:42:43.896Z,29.73
2018-06-14T01:45:12.659Z,23.67
2018-06-14T01:47:41.292Z,23.30
2018-06-14T01:50:10.246Z,24.10
2018-06-14T01:52:38.982Z,22.60
2018-06-14T01:55:07.938Z,23.30
2018-06-14T01:57:37.020Z,23.43
2018-06-14T02:00:06.407Z,22.97
2018-06-14T02:02:35.623Z,26.63
2018-06-14T02:05:05.364Z,20.43
2018-06-14T02:07:34.519Z,23.27
2018-06-14T02:10:04.121Z,20.00
2018-06-14T02:12:33.219Z,15.70
2018-06-14T02:15:02.658Z,15.30
2018-06-14T02:17:31.740Z,15.53
2018-06-14T02:20:00.772Z,16.20
2018-06-14T02:22:29.827Z,18.03
2018-06-14T02:24:59.043Z,16.23
2018-06-14T02:27:27.787Z,18.63
2018-06-14T02:29:56.456Z,20.00
2018-06-14T02:32:25.411Z,16.17
2018-06-14T02:34:54.464Z,19.90
2018-06-14T02:37:23.548Z,17.00
2018-06-14T02:39:52.285Z,17.40
2018-06-14T02:42:21.251Z,18.43
2018-06-14T02:44:50.253Z,17.90
2018-06-14T02:47:18.953Z,16.90
2018-06-14T02:49:47.894Z,17.27
2018-06-14T02:52:16.945Z,20.63
2018-06-14T02:54:46.024Z,16.97
2018-06-14T02:57:15.504Z,16.00
2018-06-14T02:59:44.555Z,19.60
2018-06-14T03:02:13.304Z,19.20
2018-06-14T03:04:41.974Z,17.07
2018-06-14T03:07:10.975Z,17.20
2018-06-14T03:09:40.021Z,14.63
2018-06-14T03:12:08.763Z,17.97
2018-06-14T03:14:37.975Z,24.07
2018-06-14T03:17:07.105Z,16.27
2018-06-14T03:19:36.147Z,13.57
2018-06-14T03:22:04.913Z,16.23
2018-06-14T03:24:33.865Z,15.53
2018-06-14T03:27:02.593Z,12.47
2018-06-14T03:29:31.240Z,20.70
2018-06-14T03:31:59.931Z,16.00
2018-06-14T03:34:29.188Z,14.57
2018-06-14T03:36:58.247Z,13.87
2018-06-14T03:39:27.627Z,12.53
2018-06-14T03:41:56.469Z,13.00
2018-06-14T03:44:25.937Z,14.33
2018-06-14T03:46:54.980Z,17.33
2018-06-14T03:49:24.072Z,16.30
2018-06-14T03:51:52.828Z,13.40
2018-06-14T03:54:21.895Z,16.07
2018-06-14T03:56:50.735Z,15.30
2018-06-14T03:59:19.710Z,17.63
2018-06-14T04:01:48.784Z,12.50
2018-06-14T04:04:18.459Z,12.57
2018-06-14T04:06:47.566Z,12.73
2018-06-14T04:09:16.591Z,12.83
2018-06-14T04:11:45.311Z,13.80
2018-06-14T04:14:14.512Z,13.63
2018-06-14T04:16:43.227Z,14.87
2018-06-14T04:19:11.855Z,17.20
2018-06-14T04:21:40.804Z,17.87
2018-06-14T04:24:09.848Z,13.47
2018-06-14T04:26:38.844Z,11.83
2018-06-14T04:29:07.813Z,14.93
2018-06-14T04:31:36.522Z,12.83
2018-06-14T04:34:05.503Z,12.37
2018-06-14T04:36:34.555Z,20.57
2018-06-14T04:39:03.502Z,16.17
2018-06-14T04:41:32.441Z,14.47
2018-06-14T04:44:01.163Z,15.27
2018-06-14T04:46:29.822Z,14.53
2018-06-14T04:48:58.512Z,13.43
2018-06-14T04:51:27.462Z,16.83
2018-06-14T04:53:56.488Z,12.27
2018-06-14T04:56:25.540Z,12.97
2018-06-14T04:58:54.283Z,15.37
2018-06-14T05:01:23.234Z,11.30
2018-06-14T05:03:52.170Z,14.70
2018-06-14T05:06:21.208Z,11.20
2018-06-14T05:08:49.952Z,12.70
2018-06-14T05:11:18.581Z,12.47
2018-06-14T05:13:47.569Z,17.93
2018-06-14T05:16:16.568Z,14.17
2018-06-14T05:18:45.625Z,14.90
2018-06-14T05:21:14.357Z,11.73
2018-06-14T05:23:43.024Z,13.40
2018-06-14T05:26:11.988Z,14.07
2018-06-14T05:28:41.037Z,15.23
2018-06-14T05:31:09.756Z,12.10
2018-06-14T05:33:38.733Z,14.53
2018-06-14T05:36:07.790Z,15.00
2018-06-14T05:38:36.822Z,14.17
2018-06-14T05:41:05.544Z,18.23
2018-06-14T05:43:34.176Z,14.87
2018-06-14T05:46:03.171Z,15.90
2018-06-14T05:48:32.260Z,13.90
2018-06-14T05:51:01.306Z,12.83
2018-06-14T05:53:30.055Z,13.97
2018-06-14T05:55:58.829Z,11.87
2018-06-14T05:58:27.778Z,14.13
2018-06-14T06:00:56.505Z,10.17
2018-06-14T06:03:25.475Z,13.00
2018-06-14T06:05:54.197Z,9.20
2018-06-14T06:08:22.887Z,11.67
2018-06-14T06:10:51.517Z,12.97
2018-06-14T06:13:20.464Z,16.03
2018-06-14T06:15:49.691Z,12.90
2018-06-14T06:18:18.491Z,12.20
2018-06-14T06:20:47.478Z,14.30
2018-06-14T06:23:16.214Z,12.43
2018-06-14T06:25:44.851Z,13.53
2018-06-14T06:28:13.818Z,11.37
2018-06-14T06:30:42.540Z,9.53
2018-06-14T06:33:11.221Z,12.30
2018-06-14T06:35:39.872Z,16.17
2018-06-14T06:38:08.811Z,16.53
2018-06-14T06:40:37.523Z,15.60
2018-06-14T06:43:06.310Z,14.23
2018-06-14T06:45:34.959Z,17.93
2018-06-14T06:48:03.942Z,12.20
2018-06-14T06:50:32.923Z,12.70
2018-06-14T06:53:01.570Z,14.27
2018-06-14T06:55:30.584Z,17.17
2018-06-14T06:57:59.347Z,16.63
2018-06-14T07:00:29.199Z,16.27
2018-06-14T07:02:57.931Z,10.33
2018-06-14T07:05:26.656Z,16.77
2018-06-14T07:07:55.735Z,15.47
2018-06-14T07:10:24.358Z,15.90
2018-06-14T07:12:53.355Z,17.93
2018-06-14T07:15:22.432Z,13.30
2018-06-14T07:17:51.189Z,13.47
2018-06-14T07:20:19.849Z,17.37
2018-06-14T07:22:48.490Z,12.43
2018-06-14T07:25:17.122Z,14.40
2018-06-14T07:27:45.786Z,21.40
2018-06-14T07:30:14.596Z,14.53
2018-06-14T07:32:43.522Z,17.33
2018-06-14T07:35:12.566Z,18.37
2018-06-14T07:37:41.288Z,12.17
2018-06-14T07:40:10.500Z,10.30
2018-06-14T07:42:39.566Z,11.87
2018-06-14T07:45:08.431Z,12.97
2018-06-14T07:47:37.058Z,17.73
2018-06-14T07:50:05.727Z,20.93
2018-06-14T07:52:34.697Z,17.47
2018-06-14T07:55:03.415Z,11.60
2018-06-14T07:57:32.055Z,10.80
2018-06-14T08:00:00.715Z,17.43
2018-06-14T08:02:29.342Z,22.93
2018-06-14T08:04:57.967Z,14.97
2018-06-14T08:07:26.591Z,13.60
2018-06-14T08:09:55.539Z,15.23
2018-06-14T08:12:24.672Z,12.73
2018-06-14T08:14:53.387Z,13.10
2018-06-14T08:17:22.351Z,14.47
2018-06-14T08:19:51.402Z,11.93
2018-06-14T08:22:20.152Z,20.27
2018-06-14T08:24:48.826Z,19.90
2018-06-14T08:27:17.571Z,17.73
2018-06-14T08:29:46.206Z,18.33
2018-06-14T08:32:14.837Z,13.17
2018-06-14T08:34:43.479Z,18.47
2018-06-14T08:37:12.178Z,18.50
2018-06-14T08:39:40.822Z,13.67
2018-06-14T08:42:09.479Z,17.67
2018-06-14T08:44:38.115Z,13.80
2018-06-14T08:47:07.104Z,18.90
2018-06-14T08:49:36.143Z,19.97
2018-06-14T08:52:05.192Z,11.47
2018-06-14T08:54:34.231Z,15.67
2018-06-14T08:57:02.967Z,11.33
2018-06-14T08:59:31.948Z,10.97
2018-06-14T09:02:00.684Z,15.63
2018-06-14T09:04:29.845Z,12.87
2018-06-14T09:06:58.926Z,19.90
2018-06-14T09:09:27.619Z,12.30
2018-06-14T09:11:56.264Z,16.13
2018-06-14T09:14:24.908Z,17.63
2018-06-14T09:16:53.876Z,14.00
2018-06-14T09:19:22.606Z,16.87
2018-06-14T09:21:51.580Z,15.57
2018-06-14T09:24:20.695Z,16.33
2018-06-14T09:26:49.680Z,15.87
2018-06-14T09:29:18.789Z,17.83
2018-06-14T09:31:48.155Z,16.73
2018-06-14T09:34:16.871Z,12.60
2018-06-14T09:36:45.888Z,14.70
2018-06-14T09:39:14.843Z,16.97
2018-06-14T09:41:43.907Z,17.83
2018-06-14T09:44:12.648Z,19.67
2018-06-14T09:46:41.279Z,18.33
2018-06-14T09:49:13.837Z,17.17
2018-06-14T09:51:43.038Z,21.27
2018-06-14T09:54:11.703Z,15.67
2018-06-14T09:56:40.816Z,14.37
2018-06-14T09:59:10.143Z,17.23
2018-06-14T10:01:38.858Z,12.73
2018-06-14T10:04:07.590Z,14.20
2018-06-14T10:06:36.218Z,17.60
2018-06-14T10:09:08.313Z,18.17
2018-06-14T10:11:37.245Z,14.53
2018-06-14T10:14:05.982Z,9.37
2018-06-14T10:16:34.939Z,14.20
2018-06-14T10:19:03.808Z,12.27
2018-06-14T10:21:32.499Z,9.10
2018-06-14T10:24:01.184Z,17.87
2018-06-14T10:26:30.140Z,17.03
2018-06-14T10:28:58.894Z,16.77
2018-06-14T10:31:27.543Z,13.10
2018-06-14T10:33:56.514Z,8.10
2018-06-14T10:36:25.262Z,11.77
2018-06-14T10:38:53.908Z,6.07
2018-06-14T10:41:22.570Z,9.10
2018-06-14T10:43:51.379Z,9.83
2018-06-14T10:46:20.109Z,11.53
2018-06-14T10:48:49.108Z,12.80
2018-06-14T10:51:17.862Z,9.63
2018-06-14T10:53:46.839Z,9.03
2018-06-14T10:56:15.923Z,6.50
2018-06-14T10:58:45.300Z,10.63
2018-06-14T11:01:14.048Z,11.90
2018-06-14T11:03:43.139Z,8.90
2018-06-14T11:06:11.983Z,11.27
2018-06-14T11:08:40.599Z,7.20
2018-06-14T11:11:09.560Z,13.87
2018-06-14T11:13:38.620Z,10.80
2018-06-14T11:16:07.652Z,13.67
2018-06-14T11:18:36.709Z,13.73
2018-06-14T11:21:05.616Z,13.67
2018-06-14T11:23:34.543Z,9.67
2018-06-14T11:26:03.588Z,10.70
2018-06-14T11:28:32.636Z,18.50
2018-06-14T11:31:02.619Z,12.77
2018-06-14T11:33:31.693Z,17.07
2018-06-14T11:36:00.728Z,12.00
2018-06-14T11:38:29.430Z,12.40
2018-06-14T11:40:58.108Z,17.10
2018-06-14T11:43:26.735Z,12.77
2018-06-14T11:45:55.474Z,23.27
2018-06-14T11:48:24.191Z,19.63
2018-06-14T11:50:53.222Z,13.67
2018-06-14T11:53:21.884Z,18.23
2018-06-14T11:55:50.856Z,21.00
2018-06-14T11:58:19.606Z,20.27
2018-06-14T12:00:48.260Z,19.43
2018-06-14T12:03:16.908Z,18.93
2018-06-14T12:05:45.543Z,21.20
2018-06-14T12:08:14.403Z,21.20
2018-06-14T12:10:43.387Z,20.77
2018-06-14T12:13:13.079Z,21.73
2018-06-14T12:15:42.157Z,18.37
2018-06-14T12:18:10.879Z,22.37
2018-06-14T12:20:39.688Z,18.60
2018-06-14T12:23:09.084Z,18.57
2018-06-14T12:25:38.167Z,22.70
2018-06-14T12:28:07.159Z,19.73
2018-06-14T12:30:36.233Z,18.93
2018-06-14T12:33:05.301Z,19.80
2018-06-14T12:35:34.438Z,17.30
2018-06-14T12:38:03.655Z,18.63
2018-06-14T12:40:32.997Z,22.80
2018-06-14T12:43:01.771Z,23.97
2018-06-14T12:45:30.495Z,24.27
2018-06-14T12:47:59.160Z,22.17
2018-06-14T12:50:27.787Z,21.43
2018-06-14T12:52:56.796Z,24.03
2018-06-14T12:55:26.018Z,21.07
2018-06-14T12:57:54.903Z,20.90
2018-06-14T13:00:23.543Z,26.83
2018-06-14T13:02:52.495Z,21.20
2018-06-14T13:05:21.222Z,26.40
2018-06-14T13:07:50.215Z,24.70
2018-06-14T13:10:19.297Z,26.57
2018-06-14T13:12:48.023Z,26.80
2018-06-14T13:15:16.648Z,26.87
2018-06-14T13:17:45.603Z,21.73
2018-06-14T13:20:14.643Z,22.03
2018-06-14T13:22:43.683Z,20.00
2018-06-14T13:25:12.972Z,21.97
2018-06-14T13:27:42.227Z,24.77
2018-06-14T13:30:11.227Z,21.23
2018-06-14T13:32:40.175Z,24.37
2018-06-14T13:35:09.224Z,24.17
2018-06-14T13:37:38.345Z,25.13
2018-06-14T13:40:07.035Z,23.17
2018-06-14T13:42:35.681Z,25.83
2018-06-14T13:45:04.310Z,24.60
2018-06-14T13:47:33.294Z,23.30
2018-06-14T13:50:02.240Z,33.63
2018-06-14T13:52:30.910Z,23.23
2018-06-14T13:54:59.808Z,17.67
2018-06-14T13:57:28.889Z,21.30
2018-06-14T13:59:57.651Z,23.33
2018-06-14T14:02:26.299Z,23.23
2018-06-14T14:04:54.991Z,24.73
2018-06-14T14:07:28.077Z,23.80
2018-06-14T14:09:57.614Z,23.93
2018-06-14T14:12:26.991Z,28.10
2018-06-14T14:14:56.091Z,26.07
2018-06-14T14:17:24.990Z,22.30
2018-06-14T14:19:53.675Z,28.67
2018-06-14T14:22:22.636Z,29.27
2018-06-14T14:24:51.350Z,25.73
2018-06-14T14:27:20.421Z,20.47
2018-06-14T14:29:49.485Z,27.40
2018-06-14T14:32:18.205Z,27.83
2018-06-14T14:34:47.154Z,28.73
2018-06-14T14:37:15.897Z,26.77
2018-06-14T14:39:44.545Z,24.70
2018-06-14T14:42:13.211Z,23.37
2018-06-14T14:44:41.818Z,28.37
2018-06-14T14:47:10.772Z,26.30
2018-06-14T14:49:39.519Z,28.03
2018-06-14T14:52:08.176Z,28.80
2018-06-14T14:54:36.858Z,23.70
2018-06-14T14:57:05.510Z,27.50
2018-06-14T14:59:34.477Z,29.63
2018-06-14T15:02:03.223Z,30.90
2018-06-14T15:04:31.867Z,31.80
2018-06-14T15:07:00.810Z,21.67
2018-06-14T15:09:29.854Z,33.90
2018-06-14T15:11:58.638Z,24.37
2018-06-14T15:14:27.631Z,29.93
2018-06-14T15:16:56.367Z,31.53
2018-06-14T15:19:24.977Z,31.23
2018-06-14T15:21:53.614Z,30.33
2018-06-14T15:24:22.259Z,31.23
2018-06-14T15:26:51.221Z,33.03
2018-06-14T15:29:20.282Z,28.30
2018-06-14T15:31:49.003Z,31.37
2018-06-14T15:34:17.966Z,28.17
2018-06-14T15:36:46.713Z,31.00
2018-06-14T15:39:15.353Z,34.33
2018-06-14T15:41:44.026Z,34.37
2018-06-14T15:44:12.656Z,31.70
2018-06-14T15:46:41.284Z,34.57
2018-06-14T15:49:09.911Z,30.57
2018-06-14T15:51:38.889Z,42.60
2018-06-14T15:54:07.618Z,30.47
2018-06-14T15:56:38.159Z,28.60
2018-06-14T15:59:10.331Z,31.70
2018-06-14T16:01:39.421Z,33.20
2018-06-14T16:04:08.727Z,29.73
2018-06-14T16:06:37.584Z,30.63
2018-06-14T16:09:07.089Z,30.80
2018-06-14T16:11:35.751Z,27.80
2018-06-14T16:14:04.446Z,24.97
2018-06-14T16:16:33.442Z,28.40
2018-06-14T16:19:02.216Z,30.77
2018-06-14T16:21:31.193Z,32.77
2018-06-14T16:24:00.208Z,34.37
2018-06-14T16:26:28.964Z,30.87
2018-06-14T16:28:58.004Z,41.70
2018-06-14T16:31:26.720Z,34.47
2018-06-14T16:33:56.018Z,30.57
2018-06-14T16:36:24.753Z,27.20
2018-06-14T16:38:53.707Z,25.67
2018-06-14T16:41:22.434Z,26.93
2018-06-14T16:43:51.090Z,29.57
2018-06-14T16:46:20.051Z,34.93
2018-06-14T16:48:48.898Z,28.47
2018-06-14T16:51:17.601Z,28.63
2018-06-14T16:53:46.561Z,34.37
2018-06-14T16:56:15.310Z,26.77
2018-06-14T16:58:44.274Z,27.53
2018-06-14T17:01:13.033Z,25.33
2018-06-14T17:03:41.628Z,24.70
2018-06-14T17:06:10.269Z,26.40
2018-06-14T17:08:38.894Z,25.17
2018-06-14T17:11:07.843Z,27.27
2018-06-14T17:13:36.540Z,37.30
2018-06-14T17:16:05.231Z,25.37
2018-06-14T17:21:09.061Z,27.50
2018-06-14T17:23:37.908Z,27.63
2018-06-14T17:26:06.584Z,29.07
2018-06-14T17:28:35.186Z,28.60
2018-06-14T17:31:03.834Z,29.33
2018-06-14T17:33:32.478Z,24.03
2018-06-14T17:36:01.120Z,21.37
2018-06-14T17:38:30.577Z,28.20
2018-06-14T17:40:59.396Z,26.63
2018-06-14T17:43:28.271Z,31.63
2018-06-14T17:45:57.347Z,35.60
2018-06-14T17:48:26.159Z,33.47
2018-06-14T17:50:55.128Z,33.27
2018-06-14T17:53:24.186Z,28.83
2018-06-14T17:55:52.907Z,28.53
2018-06-14T17:58:22.157Z,30.43
2018-06-14T18:00:50.903Z,36.57
2018-06-14T18:03:19.545Z,30.57
2018-06-14T18:05:48.723Z,26.20
2018-06-14T18:08:17.804Z,25.87
2018-06-14T18:10:46.905Z,24.57
2018-06-14T18:13:15.550Z,23.50
2018-06-14T18:15:44.479Z,28.07
2018-06-14T18:18:13.964Z,25.27
2018-06-14T18:20:43.024Z,26.03
2018-06-14T18:23:11.769Z,31.80
2018-06-14T18:25:40.430Z,36.00
2018-06-14T18:28:09.072Z,28.20
2018-06-14T18:30:38.069Z,29.47
2018-06-14T18:33:06.942Z,25.90
2018-06-14T18:35:35.904Z,29.07
2018-06-14T18:38:04.905Z,28.80
2018-06-14T18:40:33.569Z,28.67
2018-06-14T18:43:02.496Z,38.37
2018-06-14T18:45:31.215Z,30.80
2018-06-14T18:47:59.924Z,33.47
2018-06-14T18:50:28.629Z,31.50
2018-06-14T18:52:57.202Z,35.07
2018-06-14T18:55:25.836Z,24.77
2018-06-14T18:57:54.475Z,29.23
2018-06-14T19:00:23.096Z,24.77
2018-06-14T19:02:51.742Z,37.67
2018-06-14T19:05:20.671Z,32.30
2018-06-14T19:07:49.766Z,29.90
2018-06-14T19:10:18.851Z,38.10
2018-06-14T19:12:47.529Z,43.37
2018-06-14T19:15:16.185Z,41.77
2018-06-14T19:17:45.140Z,39.40
2018-06-14T19:20:14.215Z,37.93
2018-06-14T19:22:42.932Z,33.27
2018-06-14T19:25:11.930Z,38.97
2018-06-14T19:27:41.140Z,36.87
2018-06-14T19:30:10.217Z,32.13
2018-06-14T19:32:39.741Z,33.53
2018-06-14T19:35:08.376Z,34.63
2018-06-14T19:37:37.022Z,43.90
2018-06-14T19:40:05.716Z,40.60
2018-06-14T19:42:34.483Z,34.13
2018-06-14T19:45:03.477Z,34.40
2018-06-14T19:47:32.223Z,44.40
2018-06-14T19:50:01.146Z,39.67
2018-06-14T19:52:30.231Z,37.47
2018-06-14T19:54:59.269Z,34.17
2018-06-14T19:57:27.993Z,27.23
2018-06-14T19:59:56.643Z,35.43
2018-06-14T20:02:25.435Z,41.90
2018-06-14T20:04:54.459Z,40.00
2018-06-14T20:07:23.875Z,32.17
2018-06-14T20:09:52.942Z,42.60
2018-06-14T20:12:21.879Z,39.83
2018-06-14T20:14:50.890Z,42.60
2018-06-14T20:17:19.623Z,39.33
2018-06-14T20:19:48.901Z,43.27
2018-06-14T20:22:17.508Z,45.63
2018-06-14T20:24:46.149Z,45.90
2018-06-14T20:27:15.517Z,41.10
2018-06-14T20:29:44.255Z,41.13
2018-06-14T20:32:12.903Z,44.17
2018-06-14T20:34:41.551Z,42.67
2018-06-14T20:37:10.761Z,37.13
2018-06-14T20:39:40.352Z,41.70
2018-06-14T20:42:09.603Z,54.60
2018-06-14T20:44:39.099Z,47.77
2018-06-14T20:47:07.853Z,46.13
2018-06-14T20:49:36.724Z,45.93
2018-06-14T20:52:05.480Z,46.53
2018-06-14T20:54:34.754Z,52.57
2018-06-14T20:57:03.841Z,50.77
2018-06-14T20:59:32.750Z,50.17
2018-06-14T21:02:01.673Z,53.27
2018-06-14T21:04:30.713Z,56.17
2018-06-14T21:06:59.771Z,48.07
2018-06-14T21:09:28.805Z,43.60
2018-06-14T21:11:57.654Z,48.67
2018-06-14T21:14:26.745Z,44.73
2018-06-14T21:16:55.781Z,38.50
2018-06-14T21:19:24.524Z,43.53
2018-06-14T21:21:53.447Z,37.50
2018-06-14T21:24:22.514Z,37.33
2018-06-14T21:26:51.244Z,41.47
2018-06-14T21:29:19.915Z,42.10
2018-06-14T21:31:48.866Z,39.07
2018-06-14T21:34:17.919Z,34.10
2018-06-14T21:36:47.025Z,38.07
2018-06-14T21:39:15.998Z,33.10
2018-06-14T21:41:44.937Z,41.07
2018-06-14T21:44:13.564Z,47.50
2018-06-14T21:46:42.522Z,37.13
2018-06-14T21:49:11.576Z,52.40
2018-06-14T21:51:40.297Z,46.20
2018-06-14T21:54:09.235Z,37.87
2018-06-14T21:56:38.300Z,35.70
2018-06-14T21:59:07.060Z,37.03
2018-06-14T22:01:35.743Z,37.53
2018-06-14T22:04:04.727Z,39.97
2018-06-14T22:06:33.761Z,38.90
2018-06-14T22:09:02.536Z,36.23
2018-06-14T22:11:31.186Z,36.23
2018-06-14T22:14:00.339Z,34.20
2018-06-14T22:16:29.399Z,31.00
2018-06-14T22:18:58.124Z,30.63
2018-06-14T22:21:26.783Z,25.93
2018-06-14T22:23:55.762Z,22.50
2018-06-14T22:26:24.798Z,26.50
2018-06-14T22:28:53.526Z,27.33
2018-06-14T22:31:22.198Z,22.93
2018-06-14T22:34:02.459Z,14.57
2018-06-14T22:36:31.528Z,24.60
2018-06-14T22:39:00.875Z,21.97
2018-06-14T22:41:29.611Z,20.03
2018-06-14T22:43:58.562Z,23.33
2018-06-14T22:46:27.591Z,19.37
2018-06-14T22:48:56.675Z,19.93
2018-06-14T22:51:28.195Z,22.77
2018-06-14T22:53:56.855Z,23.33
2018-06-14T22:56:25.499Z,17.23
2018-06-14T22:58:54.475Z,18.87
2018-06-14T23:02:01.692Z,15.67
2018-06-14T23:04:30.806Z,20.97
2018-06-14T23:06:59.519Z,18.33
2018-06-14T23:10:39.041Z,15.70
2018-06-14T23:13:09.297Z,17.87
2018-06-14T23:15:38.179Z,16.50
2018-06-14T23:18:07.247Z,12.83
2018-06-14T23:20:36.776Z,17.73
2018-06-14T23:23:06.119Z,12.77
2018-06-14T23:25:35.317Z,17.30
2018-06-14T23:28:04.291Z,15.37
2018-06-14T23:30:32.999Z,13.50
2018-06-14T23:33:01.950Z,13.97
2018-06-14T23:35:30.987Z,19.13
2018-06-14T23:38:00.033Z,13.17
2018-06-14T23:40:28.777Z,13.80
2018-06-14T23:42:57.735Z,12.57
2018-06-14T23:45:26.447Z,14.50
2018-06-14T23:47:55.404Z,12.20
2018-06-14T23:50:24.471Z,14.57
2018-06-14T23:52:53.482Z,15.07
2018-06-14T23:55:22.431Z,14.33
2018-06-14T23:57:51.479Z,13.30
